Time;durP1;ratioP1;P1;durP2;ratioP2;P2;SDS_P1;SDS_P2;PMS_P1;PMS_P2;Temp;Humidity;BMP_temperature;BMP_pressure;BME280_temperature;BME280_humidity;BME280_pressure;Samples;Min_cycle;Max_cycle;Signal;HPM_P1;HPM_P2
2022/05/12 00:01:50;;;;;;;25.40;14.80;;;;;;;11.97;98.04;98864.19;105139;1274;68024;-70
2022/05/12 00:04:38;;;;;;;21.30;13.70;;;;;;;11.98;97.82;98863.84;105023;1273;71631;-70
2022/05/12 00:07:26;;;;;;;23.20;14.70;;;;;;;11.98;97.82;98860.63;104859;1273;60523;-71
2022/05/12 00:10:18;;;;;;;23.10;13.80;;;;;;;11.98;97.69;98864.07;104903;1273;60534;-69
2022/05/12 00:13:07;;;;;;;23.80;14.50;;;;;;;11.96;97.64;98837.39;104802;1273;74020;-71
2022/05/12 00:15:55;;;;;;;25.00;15.80;;;;;;;11.92;97.82;98801.11;104933;1273;68842;-69
2022/05/12 00:18:43;;;;;;;23.70;15.60;;;;;;;11.93;98.22;98797.88;105007;1273;71922;-71
2022/05/12 00:21:32;;;;;;;26.30;16.40;;;;;;;11.96;98.31;98822.70;104979;1273;60519;-71
2022/05/12 00:24:20;;;;;;;26.20;16.20;;;;;;;11.93;98.07;98851.70;104855;1273;60351;-69
2022/05/12 00:27:07;;;;;;;26.90;16.80;;;;;;;11.89;97.90;98855.45;104926;1272;74642;-71
2022/05/12 00:29:55;;;;;;;26.00;16.80;;;;;;;11.87;98.29;98854.98;105011;1273;69194;-73
2022/05/12 00:32:47;;;;;;;26.00;16.20;;;;;;;11.86;98.04;98865.39;105311;1273;73253;-72
2022/05/12 00:35:35;;;;;;;23.40;15.70;;;;;;;11.83;98.10;98864.24;105313;1273;60588;-71
2022/05/12 00:38:24;;;;;;;24.20;15.10;;;;;;;11.80;98.28;98843.13;105052;1274;60533;-71
2022/05/12 00:41:12;;;;;;;27.10;15.90;;;;;;;11.76;98.41;98828.39;104899;1273;75514;-71
2022/05/12 00:44:07;;;;;;;25.70;15.80;;;;;;;11.75;98.59;98851.04;105137;1273;68411;-71
2022/05/12 00:46:54;;;;;;;25.20;16.50;;;;;;;11.71;98.37;98851.77;104850;1274;74290;-71
2022/05/12 00:49:45;;;;;;;21.70;14.80;;;;;;;11.58;98.23;98842.89;104779;1273;60442;-72
2022/05/12 00:52:33;;;;;;;24.30;15.50;;;;;;;11.56;98.35;98840.21;104875;1273;60656;-71
2022/05/12 00:55:30;;;;;;;24.90;16.90;;;;;;;11.49;98.76;98820.67;105032;1274;75491;-70
2022/05/12 00:58:21;;;;;;;26.40;17.00;;;;;;;11.43;98.72;98829.22;105047;1273;66926;-71
2022/05/12 01:01:10;;;;;;;24.90;16.20;;;;;;;11.37;99.01;98841.70;105229;1273;71387;-71
2022/05/12 01:04:01;;;;;;;24.80;16.20;;;;;;;11.28;99.71;98835.86;104817;1273;60695;-70
2022/05/12 01:06:49;;;;;;;25.00;17.00;;;;;;;11.20;99.71;98835.43;104800;1274;60925;-69
2022/05/12 01:09:38;;;;;;;28.10;18.00;;;;;;;11.17;100.00;98838.06;105088;1273;72834;-71
2022/05/12 01:12:25;;;;;;;26.00;16.10;;;;;;;11.14;100.00;98822.20;104876;1273;68030;-71
2022/05/12 01:15:17;;;;;;;24.40;16.60;;;;;;;11.11;100.00;98826.56;104858;1273;74772;-71
2022/05/12 01:18:15;;;;;;;27.60;17.70;;;;;;;11.07;100.00;98815.24;104928;1274;60561;-72
2022/05/12 01:21:03;;;;;;;26.10;16.80;;;;;;;11.00;100.00;98817.14;105160;1273;60848;-71
2022/05/12 01:23:51;;;;;;;27.00;17.10;;;;;;;10.94;100.00;98814.06;105039;1273;74305;-70
2022/05/12 01:26:40;;;;;;;24.70;16.60;;;;;;;10.87;100.00;98809.70;104736;1273;68367;-70
2022/05/12 01:29:28;;;;;;;23.50;15.60;;;;;;;10.85;100.00;98807.13;104818;1273;74394;-71
2022/05/12 01:32:16;;;;;;;23.10;15.00;;;;;;;10.81;100.00;98789.92;104804;1273;61532;-73
2022/05/12 01:35:06;;;;;;;24.80;14.50;;;;;;;10.86;100.00;98789.77;104835;1274;60452;-72
2022/05/12 01:37:54;;;;;;;21.50;13.70;;;;;;;10.89;100.00;98785.01;104998;1273;75813;-70
2022/05/12 01:40:44;;;;;;;22.80;15.10;;;;;;;10.91;100.00;98786.30;105061;1273;67096;-70
2022/05/12 01:43:31;;;;;;;22.80;15.10;;;;;;;10.94;100.00;98790.08;104880;1273;74389;-70
2022/05/12 01:46:19;;;;;;;25.70;16.30;;;;;;;10.99;100.00;98817.27;104889;1272;60585;-71
2022/05/12 01:49:07;;;;;;;23.70;15.10;;;;;;;10.98;100.00;98816.42;104885;1272;60545;-71
2022/05/12 01:51:58;;;;;;;23.90;16.30;;;;;;;10.97;100.00;98808.55;105161;1273;75057;-70
2022/05/12 01:54:46;;;;;;;25.40;17.00;;;;;;;10.97;100.00;98802.02;104821;1273;69567;-69
2022/05/12 01:57:34;;;;;;;25.00;16.70;;;;;;;10.96;100.00;98800.53;104949;1273;72981;-70
2022/05/12 02:00:28;;;;;;;25.80;16.50;;;;;;;10.94;100.00;98811.06;105121;1274;60497;-70
2022/05/12 02:03:17;;;;;;;24.90;15.50;;;;;;;10.92;100.00;98818.17;105063;1273;61513;-72
2022/05/12 02:06:05;;;;;;;28.20;17.80;;;;;;;10.88;100.00;98833.94;104865;1273;74448;-70
2022/05/12 02:08:52;;;;;;;28.50;17.80;;;;;;;10.86;100.00;98833.64;104892;1273;69921;-68
2022/05/12 02:11:41;;;;;;;26.50;16.70;;;;;;;10.83;100.00;98829.14;104864;1273;73820;-70
2022/05/12 02:14:28;;;;;;;23.40;15.70;;;;;;;10.81;100.00;98825.02;104865;1273;60626;-71
2022/05/12 02:17:16;;;;;;;24.00;15.80;;;;;;;10.81;100.00;98813.33;104949;1273;60431;-69
2022/05/12 02:20:06;;;;;;;25.90;15.70;;;;;;;10.80;100.00;98801.73;104894;1274;74068;-69
2022/05/12 02:22:54;;;;;;;23.90;15.80;;;;;;;10.80;100.00;98791.52;105152;1273;68209;-69
2022/05/12 02:25:42;;;;;;;24.50;15.30;;;;;;;10.80;100.00;98783.27;105127;1273;74473;-70
2022/05/12 02:28:30;;;;;;;23.80;15.00;;;;;;;10.81;100.00;98764.40;104917;1273;60659;-73
2022/05/12 02:31:18;;;;;;;23.60;14.20;;;;;;;10.81;100.00;98750.00;104949;1273;61800;-71
2022/05/12 02:34:06;;;;;;;23.60;15.10;;;;;;;10.79;100.00;98738.31;105097;1273;74751;-71
2022/05/12 02:37:03;;;;;;;23.50;14.70;;;;;;;10.80;100.00;98739.85;104952;1273;69508;-72
2022/05/12 02:39:51;;;;;;;22.30;13.50;;;;;;;10.81;100.00;98736.76;106484;1273;72973;-71
2022/05/12 02:42:39;;;;;;;23.50;14.10;;;;;;;10.81;100.00;98743.79;106826;1273;60488;-70
2022/05/12 02:45:29;;;;;;;22.30;14.70;;;;;;;10.82;100.00;98740.70;106508;1273;62174;-71
2022/05/12 02:48:19;;;;;;;22.80;14.30;;;;;;;10.80;100.00;98736.26;106490;1273;75644;-70
2022/05/12 02:51:08;;;;;;;22.60;14.70;;;;;;;10.72;100.00;98736.91;105932;1272;68377;-71
2022/05/12 02:53:56;;;;;;;24.90;14.20;;;;;;;10.71;100.00;98739.61;105125;1274;71374;-72
2022/05/12 02:56:45;;;;;;;23.20;14.30;;;;;;;10.67;100.00;98729.38;105153;1273;60545;-71
2022/05/12 02:59:33;;;;;;;22.30;13.70;;;;;;;10.64;100.00;98734.88;104866;1274;62022;-71
2022/05/12 03:02:21;;;;;;;20.80;13.40;;;;;;;10.61;100.00;98736.95;104833;1271;72728;-70
2022/05/12 03:05:10;;;;;;;22.30;13.80;;;;;;;10.59;100.00;98734.86;105058;1274;67139;-71
2022/05/12 03:07:59;;;;;;;22.00;13.90;;;;;;;10.61;100.00;98735.90;105102;1273;74263;-71
2022/05/12 03:10:51;;;;;;;23.80;13.30;;;;;;;10.64;100.00;98724.02;105292;1273;60618;-71
2022/05/12 03:13:40;;;;;;;23.00;13.10;;;;;;;10.69;100.00;98724.56;105168;1273;60443;-70
2022/05/12 03:16:28;;;;;;;19.90;12.20;;;;;;;10.72;99.81;98718.65;104958;1273;75492;-71
2022/05/12 03:19:16;;;;;;;19.40;12.00;;;;;;;10.76;99.80;98711.31;104954;1273;69555;-70
2022/05/12 03:22:03;;;;;;;18.80;11.80;;;;;;;10.79;99.51;98713.33;104899;1273;73415;-72
2022/05/12 03:24:51;;;;;;;21.70;13.50;;;;;;;10.81;99.42;98714.38;104899;1273;61263;-71
2022/05/12 03:27:40;;;;;;;22.30;13.30;;;;;;;10.81;99.47;98703.86;105069;1273;60666;-70
2022/05/12 03:30:28;;;;;;;22.80;13.50;;;;;;;10.82;99.41;98700.08;104868;1274;72877;-71
2022/05/12 03:33:16;;;;;;;21.70;14.30;;;;;;;10.83;99.73;98690.08;104796;1273;67890;-72
2022/05/12 03:36:09;;;;;;;27.20;15.10;;;;;;;10.80;99.88;98680.42;104885;1274;71635;-71
2022/05/12 03:38:57;;;;;;;25.00;15.00;;;;;;;10.82;100.00;98694.36;105122;1273;60524;-71
2022/05/12 03:41:44;;;;;;;22.90;14.80;;;;;;;10.85;99.97;98702.83;104910;1273;61052;-70
2022/05/12 03:44:49;;;;;;;25.60;14.90;;;;;;;10.88;100.00;98702.10;104904;1273;74138;-69
2022/05/12 03:47:38;;;;;;;24.60;16.50;;;;;;;10.91;99.97;98709.84;105014;1274;66199;-73
2022/05/12 03:50:28;;;;;;;23.50;15.60;;;;;;;10.95;99.90;98711.20;105095;1274;74574;-72
2022/05/12 03:53:16;;;;;;;24.80;16.40;;;;;;;10.99;99.89;98714.02;104752;1274;60564;-70
2022/05/12 03:56:06;;;;;;;23.50;14.50;;;;;;;11.02;99.71;98720.98;104811;1273;60685;-70
2022/05/12 03:58:55;;;;;;;20.30;13.90;;;;;;;11.05;99.68;98728.78;104835;1273;75500;-69
2022/05/12 04:01:43;;;;;;;21.80;14.50;;;;;;;11.08;99.91;98734.05;105583;1273;66559;-71
2022/05/12 04:04:33;;;;;;;21.10;13.20;;;;;;;11.13;99.49;98749.17;104982;1274;71588;-72
2022/05/12 04:07:22;;;;;;;22.00;13.50;;;;;;;11.14;99.19;98765.15;105175;1273;61528;-71
2022/05/12 04:10:13;;;;;;;20.90;13.70;;;;;;;11.13;98.96;98766.20;104831;1275;61953;-70
2022/05/12 04:13:01;;;;;;;20.10;12.90;;;;;;;11.14;98.83;98764.13;105216;1273;75544;-72
2022/05/12 04:15:49;;;;;;;18.70;12.00;;;;;;;11.19;98.72;98765.26;105024;1273;69776;-72
2022/05/12 04:18:37;;;;;;;17.70;11.00;;;;;;;11.17;98.38;98768.04;105132;1273;71532;-70
2022/05/12 04:21:26;;;;;;;19.60;12.40;;;;;;;11.13;98.44;98764.04;104937;1274;60443;-70
2022/05/12 04:24:14;;;;;;;16.40;10.30;;;;;;;11.12;98.20;98756.52;105157;1273;60498;-71
2022/05/12 04:27:02;;;;;;;19.60;12.00;;;;;;;11.12;98.20;98744.86;105083;1273;75511;-71
2022/05/12 04:29:52;;;;;;;22.00;13.00;;;;;;;11.11;97.92;98738.16;104914;1274;67908;-73
2022/05/12 04:32:41;;;;;;;19.50;11.70;;;;;;;11.10;98.07;98720.33;105243;1274;72967;-72
2022/05/12 04:35:30;;;;;;;17.70;11.50;;;;;;;11.05;97.94;98720.13;104958;1274;62237;-75
2022/05/12 04:38:18;;;;;;;19.80;11.80;;;;;;;11.03;98.05;98723.89;104991;1273;62125;-71
2022/05/12 04:41:07;;;;;;;15.80;10.20;;;;;;;11.03;98.17;98729.19;104952;1273;74535;-71
2022/05/12 04:43:56;;;;;;;23.30;13.40;;;;;;;11.01;98.35;98709.91;104687;1274;68617;-70
2022/05/12 04:46:44;;;;;;;21.50;13.20;;;;;;;10.98;98.99;98707.22;104917;1273;74560;-70
2022/05/12 04:49:32;;;;;;;24.80;14.60;;;;;;;10.97;99.32;98689.74;104846;1273;60438;-71
2022/05/12 04:52:20;;;;;;;23.40;14.20;;;;;;;11.00;99.43;98689.21;105076;1273;61965;-71
2022/05/12 04:55:10;;;;;;;22.10;14.60;;;;;;;11.05;99.44;98688.34;105030;1273;75087;-71
2022/05/12 04:57:59;;;;;;;24.30;14.70;;;;;;;11.14;99.72;98673.13;104993;1273;69706;-69
2022/05/12 05:00:48;;;;;;;25.50;14.70;;;;;;;11.27;99.96;98670.33;105227;1273;72866;-72
2022/05/12 05:03:36;;;;;;;23.30;14.90;;;;;;;11.48;99.99;98680.63;105314;1273;60623;-71
2022/05/12 05:06:24;;;;;;;21.30;13.80;;;;;;;11.72;99.69;98684.51;105193;1273;60713;-65
2022/05/12 05:09:11;;;;;;;24.50;14.50;;;;;;;11.95;98.49;98687.47;104643;1273;75216;-63
2022/05/12 05:11:59;;;;;;;21.70;13.60;;;;;;;12.14;97.92;98701.68;104737;1274;69657;-66
2022/05/12 05:14:47;;;;;;;23.50;15.30;;;;;;;12.20;96.93;98706.36;104775;1274;74519;-66
2022/05/12 05:17:35;;;;;;;23.20;14.50;;;;;;;12.33;97.33;98703.55;104994;1273;60501;-64
2022/05/12 05:20:30;;;;;;;25.30;14.80;;;;;;;12.47;96.42;98718.41;105109;1273;61631;-63
2022/05/12 05:23:21;;;;;;;26.30;13.50;;;;;;;12.49;95.85;98733.86;104809;1274;75713;-63
2022/05/12 05:26:10;;;;;;;24.50;15.40;;;;;;;12.50;95.77;98751.45;104974;1273;68606;-65
2022/05/12 05:28:57;;;;;;;24.70;14.90;;;;;;;12.52;95.84;98763.27;104757;1274;74583;-66
2022/05/12 05:31:45;;;;;;;25.90;16.10;;;;;;;12.54;95.86;98769.09;104819;1274;60423;-61
2022/05/12 05:34:33;;;;;;;25.20;14.70;;;;;;;12.54;95.64;98790.67;104731;1273;60473;-65
2022/05/12 05:37:22;;;;;;;23.60;14.90;;;;;;;12.48;95.48;98795.20;104887;1274;74101;-65
2022/05/12 05:40:15;;;;;;;23.00;15.40;;;;;;;12.46;95.28;98805.06;104993;1274;68456;-64
2022/05/12 05:43:04;;;;;;;20.80;13.20;;;;;;;12.41;95.66;98812.45;104708;1274;74488;-63
2022/05/12 05:45:53;;;;;;;22.30;13.80;;;;;;;12.36;95.83;98815.34;104769;1274;60514;-64
2022/05/12 05:48:41;;;;;;;20.60;13.70;;;;;;;12.28;95.92;98815.64;104683;1274;60636;-67
2022/05/12 05:54:40;;;;;;;20.60;12.90;;;;;;;12.22;95.90;98811.09;104923;1274;68664;-65
2022/05/12 05:57:33;;;;;;;19.50;11.50;;;;;;;12.21;95.54;98793.05;104748;1274;72909;-64
2022/05/12 06:00:54;;;;;;;18.60;11.00;;;;;;;12.25;95.54;98790.80;105285;1274;60495;-65
2022/05/12 06:03:42;;;;;;;20.40;11.60;;;;;;;12.36;94.91;98780.42;107900;1273;61505;-62
2022/05/12 06:06:30;;;;;;;18.10;9.80;;;;;;;12.56;93.82;98763.59;107667;1274;74352;-63
2022/05/12 06:09:19;;;;;;;15.90;9.00;;;;;;;12.80;92.66;98775.21;107441;1274;67408;-66
2022/05/12 06:12:10;;;;;;;14.60;9.60;;;;;;;13.03;90.31;98781.51;108146;1273;71530;-66
2022/05/12 06:14:59;;;;;;;13.90;8.00;;;;;;;13.25;88.39;98792.32;105134;1273;60548;-69
2022/05/12 06:17:48;;;;;;;14.50;7.70;;;;;;;13.58;86.16;98787.50;104727;1274;61002;-69
2022/05/12 06:20:43;;;;;;;12.60;6.30;;;;;;;14.16;83.51;98786.80;104832;1273;75570;-70
2022/05/12 06:23:32;;;;;;;12.80;6.10;;;;;;;14.19;80.97;98809.30;105050;1273;69694;-69
2022/05/12 06:26:20;;;;;;;11.60;5.00;;;;;;;14.05;79.74;98824.08;105060;1273;72387;-69
2022/05/12 06:29:08;;;;;;;9.50;4.40;;;;;;;13.76;77.46;98843.45;104955;1273;60939;-69
2022/05/12 06:31:57;;;;;;;9.60;4.40;;;;;;;13.52;78.37;98855.01;105110;1274;60666;-75
2022/05/12 06:34:46;;;;;;;8.80;3.10;;;;;;;13.31;78.85;98869.33;105282;1273;74177;-74
2022/05/12 06:37:35;;;;;;;9.70;3.70;;;;;;;13.12;78.74;98874.08;105199;1273;69677;-75
2022/05/12 06:40:23;;;;;;;8.80;3.60;;;;;;;13.01;79.51;98878.48;104974;1274;72884;-74
2022/05/12 06:43:13;;;;;;;8.40;3.40;;;;;;;12.90;79.34;98863.77;105227;1274;60873;-75
2022/05/12 06:46:04;;;;;;;8.10;3.10;;;;;;;12.86;78.09;98879.95;105217;1273;60447;-74
2022/05/12 06:48:52;;;;;;;10.10;3.70;;;;;;;12.88;77.79;98887.40;105061;1273;74252;-75
2022/05/12 06:51:41;;;;;;;9.70;4.10;;;;;;;12.82;78.06;98898.39;105062;1274;69459;-76
2022/05/12 06:54:29;;;;;;;9.80;3.60;;;;;;;12.72;78.66;98910.14;105096;1273;72860;-74
2022/05/12 06:57:22;;;;;;;9.10;4.00;;;;;;;12.61;78.96;98915.14;105025;1274;60577;-74
2022/05/12 07:00:16;;;;;;;11.80;4.00;;;;;;;12.35;79.07;98919.81;105430;1274;60506;-76
2022/05/12 07:03:09;;;;;;;10.70;4.70;;;;;;;12.12;80.52;98931.09;105130;1274;75797;-75
2022/05/12 07:05:58;;;;;;;9.70;4.10;;;;;;;11.92;81.98;98944.96;104937;1274;67200;-74
2022/05/12 07:08:45;;;;;;;9.80;4.40;;;;;;;11.74;83.74;98954.42;105386;1274;73914;-71
2022/05/12 07:11:33;;;;;;;11.80;4.00;;;;;;;11.55;85.20;98957.63;105005;1274;60502;-72
2022/05/12 07:14:21;;;;;;;9.90;3.90;;;;;;;11.46;86.60;98957.52;105504;1273;61563;-71
2022/05/12 07:17:09;;;;;;;8.50;3.00;;;;;;;11.45;87.15;98973.29;105198;1274;74943;-73
2022/05/12 07:29:24;;;;;;;7.00;2.30;;;;;;;11.33;88.16;99006.90;105044;1274;62155;-73
2022/05/12 07:32:13;;;;;;;7.30;2.20;;;;;;;11.31;88.67;99005.67;105177;1274;74134;-72
2022/05/12 07:35:01;;;;;;;6.50;2.10;;;;;;;11.32;88.49;99011.65;105005;1273;68031;-71
2022/05/12 07:37:49;;;;;;;8.60;2.10;;;;;;;11.42;88.79;99005.84;104946;1273;71879;-71
2022/05/12 07:40:37;;;;;;;7.30;1.80;;;;;;;11.62;88.02;99001.42;105131;1274;60476;-71
2022/05/12 07:43:25;;;;;;;6.50;1.80;;;;;;;11.83;87.03;98997.79;105001;1274;60325;-73
2022/05/12 07:46:18;;;;;;;6.30;1.60;;;;;;;12.10;86.22;98992.08;105291;1274;75529;-72
2022/05/12 07:49:06;;;;;;;6.00;1.80;;;;;;;13.38;82.12;98993.20;105237;1274;67978;-70
2022/05/12 07:51:55;;;;;;;5.90;1.80;;;;;;;15.78;73.67;98990.20;105165;1274;70646;-70
2022/05/12 07:54:43;;;;;;;5.70;1.30;;;;;;;17.35;66.33;98993.11;104983;1274;60498;-71
2022/05/12 07:57:31;;;;;;;6.40;1.10;;;;;;;18.55;59.26;98998.94;104979;1274;61565;-72
2022/05/12 08:00:19;;;;;;;4.80;1.20;;;;;;;19.97;55.83;98997.46;104936;1274;74625;-69
2022/05/12 08:03:07;;;;;;;4.20;0.90;;;;;;;21.07;52.45;99000.66;105305;1274;68141;-73
2022/05/12 08:05:58;;;;;;;5.20;1.00;;;;;;;21.55;48.88;99017.09;105010;1274;73464;-72
2022/05/12 08:08:50;;;;;;;4.20;0.80;;;;;;;20.95;47.33;99020.26;105386;1274;60480;-72
2022/05/12 08:11:37;;;;;;;6.00;0.80;;;;;;;19.97;49.14;99042.84;104938;1274;60395;-70
2022/05/12 08:14:25;;;;;;;3.30;0.70;;;;;;;18.56;51.77;99066.72;105134;1274;74030;-73
2022/05/12 08:17:13;;;;;;;5.00;0.80;;;;;;;17.62;54.93;99070.36;105126;1274;66413;-72
2022/05/12 08:20:05;;;;;;;3.60;0.70;;;;;;;17.43;56.30;99079.27;104945;1274;72868;-72
2022/05/12 08:22:53;;;;;;;4.90;0.80;;;;;;;17.41;55.88;99087.08;105152;1273;60557;-71
2022/05/12 08:25:42;;;;;;;6.40;1.00;;;;;;;16.88;56.01;99109.30;104960;1274;60534;-70
2022/05/12 08:28:30;;;;;;;4.20;0.90;;;;;;;16.43;57.95;99112.60;104859;1274;74005;-71
2022/05/12 08:31:22;;;;;;;5.10;1.00;;;;;;;16.28;58.98;99106.15;105015;1275;67417;-71
2022/05/12 08:34:10;;;;;;;5.40;0.90;;;;;;;16.68;58.65;99112.02;105314;1274;72451;-72
2022/05/12 08:36:58;;;;;;;3.30;0.70;;;;;;;16.94;57.46;99114.52;105129;1274;60491;-72
2022/05/12 08:39:50;;;;;;;3.90;0.80;;;;;;;17.04;56.54;99128.27;105121;1274;62108;-66
2022/05/12 08:42:45;;;;;;;5.30;1.30;;;;;;;17.44;55.93;99132.39;104980;1274;75591;-69
2022/05/12 08:45:33;;;;;;;5.50;1.10;;;;;;;17.14;55.50;99135.80;104975;1274;67439;-71
2022/05/12 08:48:21;;;;;;;4.40;1.10;;;;;;;16.52;56.14;99138.85;104639;1274;74465;-69
2022/05/12 08:51:19;;;;;;;5.50;1.20;;;;;;;15.86;58.19;99153.73;104757;1274;60492;-73
2022/05/12 08:54:14;;;;;;;4.10;1.00;;;;;;;15.21;60.26;99163.05;105638;1274;62078;-69
2022/05/12 08:57:05;;;;;;;5.20;0.90;;;;;;;14.65;61.82;99168.90;105024;1274;75653;-69
2022/05/12 08:59:55;;;;;;;4.70;0.90;;;;;;;14.12;63.91;99177.45;104627;1274;68331;-69
2022/05/12 09:03:27;;;;;;;4.40;1.20;;;;;;;13.80;65.92;99183.31;104935;1273;73275;-70
2022/05/12 09:06:44;;;;;;;4.50;1.10;;;;;;;14.79;64.90;99187.86;104842;1274;60472;-69
2022/05/12 09:10:03;;;;;;;4.00;0.90;;;;;;;16.72;58.27;99175.86;104518;1273;363011;-70
2022/05/12 09:13:23;;;;;;;4.50;0.90;;;;;;;18.52;52.73;99162.25;105027;1274;73792;-68
2022/05/12 09:16:29;;;;;;;3.20;0.70;;;;;;;19.94;47.13;99164.49;104870;1274;69627;-69
2022/05/12 09:19:19;;;;;;;4.20;0.80;;;;;;;20.07;46.96;99179.58;105180;1274;73201;-68
2022/05/12 09:22:09;;;;;;;6.00;0.90;;;;;;;20.57;46.58;99184.27;104646;1274;60547;-70
2022/05/12 09:24:57;;;;;;;3.60;0.70;;;;;;;20.50;45.36;99194.02;104718;1274;60564;-68
2022/05/12 09:27:45;;;;;;;4.00;0.70;;;;;;;20.02;45.47;99207.69;104992;1274;74759;-68
2022/05/12 09:30:36;;;;;;;4.50;0.70;;;;;;;19.29;46.16;99223.80;104678;1274;69647;-69
2022/05/12 09:33:34;;;;;;;4.30;0.70;;;;;;;18.13;48.27;99229.59;104827;1274;73701;-68
2022/05/12 09:36:29;;;;;;;3.90;0.80;;;;;;;17.21;51.13;99245.17;104585;1274;60443;-69
2022/05/12 09:39:36;;;;;;;5.90;0.90;;;;;;;16.29;53.74;99252.08;104946;1274;60562;-69
2022/05/12 09:42:27;;;;;;;4.00;0.70;;;;;;;15.77;55.79;99267.94;104868;1274;75644;-70
2022/05/12 09:45:32;;;;;;;6.00;0.90;;;;;;;15.38;56.96;99272.23;104978;1274;68413;-72
2022/05/12 09:48:25;;;;;;;4.20;0.90;;;;;;;15.30;58.10;99275.08;104821;1274;74910;-74
2022/05/12 09:51:24;;;;;;;6.20;1.00;;;;;;;15.24;58.68;99285.95;105100;1274;60353;-71
2022/05/12 09:54:23;;;;;;;3.80;0.90;;;;;;;16.03;57.20;99286.71;104885;1274;60570;-71
2022/05/12 09:57:22;;;;;;;7.70;0.90;;;;;;;16.89;55.33;99285.67;104707;1274;73263;-72
2022/05/12 10:00:24;;;;;;;5.10;0.80;;;;;;;17.78;52.12;99283.63;105026;1274;68072;-71
2022/05/12 10:09:50;;;;;;;4.90;1.00;;;;;;;18.22;48.23;99324.62;104904;1274;60555;-71
2022/05/12 10:12:49;;;;;;;5.60;1.10;;;;;;;18.37;47.40;99335.94;104754;1274;73995;-70
2022/05/12 10:15:39;;;;;;;6.80;1.00;;;;;;;19.44;44.80;99336.94;105253;1274;68238;-70
2022/05/12 10:18:37;;;;;;;5.60;1.00;;;;;;;19.43;44.76;99335.35;104710;1274;72649;-71
2022/05/12 10:21:42;;;;;;;6.40;1.00;;;;;;;19.58;45.12;99332.70;105165;1273;60449;-71
2022/05/12 10:25:03;;;;;;;7.80;1.20;;;;;;;19.95;43.03;99338.83;104969;1272;61015;-69
2022/05/12 10:28:12;;;;;;;6.30;1.00;;;;;;;19.39;43.94;99343.70;104805;1274;74873;-70
2022/05/12 10:31:34;;;;;;;6.00;1.20;;;;;;;18.80;45.54;99358.87;104906;1273;68645;-72
2022/05/12 10:34:53;;;;;;;5.20;1.10;;;;;;;18.95;45.70;99359.30;104766;1272;72954;-70
2022/05/12 10:37:53;;;;;;;6.00;1.30;;;;;;;19.06;45.66;99358.86;104676;1274;60467;-69
2022/05/12 10:40:52;;;;;;;5.30;1.40;;;;;;;20.40;42.89;99369.70;104630;1274;61130;-68
2022/05/12 10:43:58;;;;;;;5.10;1.10;;;;;;;21.60;40.19;99369.89;104626;1273;75108;-71
2022/05/12 10:47:04;;;;;;;6.60;1.50;;;;;;;21.64;39.12;99373.73;104669;1273;66785;-75
2022/05/12 10:50:19;;;;;;;7.80;1.00;;;;;;;21.91;37.57;99375.93;105088;1273;74484;-70
2022/05/12 10:54:06;;;;;;;5.90;1.60;;;;;;;20.89;38.35;99389.05;105104;1274;60377;-70
2022/05/12 10:57:19;;;;;;;6.70;1.50;;;;;;;19.84;39.82;99394.29;104810;1274;61206;-71
2022/05/12 11:00:55;;;;;;;6.50;1.60;;;;;;;19.14;39.98;99396.25;104979;1273;73875;-71
2022/05/12 11:04:03;;;;;;;9.00;1.60;;;;;;;20.44;38.17;99386.32;104711;1273;68702;-71
2022/05/12 11:07:00;;;;;;;16.60;2.40;;;;;;;21.12;37.54;99389.72;105036;1273;74476;-75
2022/05/12 11:10:06;;;;;;;8.00;1.60;;;;;;;22.00;36.00;99386.25;104712;1273;60663;-74
2022/05/12 11:13:11;;;;;;;9.00;1.60;;;;;;;21.55;35.71;99398.82;105024;1274;61674;-71
2022/05/12 11:16:06;;;;;;;7.90;1.30;;;;;;;20.82;35.29;99401.41;104726;1273;74836;-71
2022/05/12 11:19:20;;;;;;;6.60;1.20;;;;;;;20.63;35.05;99404.56;104763;1273;70014;-69
2022/05/12 11:22:51;;;;;;;5.90;1.20;;;;;;;19.78;36.37;99423.30;104731;1273;73364;-70
2022/05/12 11:26:05;;;;;;;7.20;1.20;;;;;;;18.90;37.37;99436.79;104856;1273;60558;-73
2022/05/12 11:32:47;;;;;;;7.70;1.40;;;;;;;18.23;37.84;99432.81;105011;1273;75300;-71
2022/05/12 11:35:45;;;;;;;8.20;1.40;;;;;;;18.25;38.50;99437.39;104791;1273;69602;-72
2022/05/12 11:38:39;;;;;;;6.90;1.50;;;;;;;18.21;38.43;99440.05;104909;1273;73179;-74
2022/05/12 11:41:40;;;;;;;9.40;1.80;;;;;;;18.05;38.81;99442.27;105071;1274;60444;-73
2022/05/12 11:44:34;;;;;;;11.50;1.40;;;;;;;18.08;38.76;99448.91;105045;1273;60579;-75
2022/05/12 11:47:51;;;;;;;10.30;1.20;;;;;;;18.12;39.12;99439.71;105134;1273;74541;-71
2022/05/12 11:50:50;;;;;;;9.00;1.40;;;;;;;18.05;39.71;99452.41;104802;1273;68635;-70
2022/05/12 11:54:10;;;;;;;6.70;1.30;;;;;;;17.85;39.43;99443.17;104849;1273;73084;-75
2022/05/12 11:57:02;;;;;;;6.80;1.30;;;;;;;17.64;39.94;99456.96;104930;1273;60469;-75
2022/05/12 11:59:56;;;;;;;9.30;1.50;;;;;;;17.47;40.23;99465.19;104980;1273;61215;-68
2022/05/12 12:02:48;;;;;;;7.10;1.50;;;;;;;17.32;40.58;99468.76;105010;1274;74522;-73
2022/05/12 12:05:50;;;;;;;5.90;1.20;;;;;;;17.13;41.48;99480.29;104959;1274;66823;-74
2022/05/12 12:08:45;;;;;;;8.40;1.50;;;;;;;17.04;41.47;99490.42;105018;1273;74425;-71
2022/05/12 12:11:43;;;;;;;9.10;1.60;;;;;;;17.05;41.99;99498.51;104683;1274;60581;-72
2022/05/12 12:14:46;;;;;;;8.40;1.70;;;;;;;16.98;42.90;99496.48;104945;1274;62500;-73
2022/05/12 12:17:41;;;;;;;7.10;1.60;;;;;;;16.92;43.10;99496.79;104954;1273;75579;-72
2022/05/12 12:20:29;;;;;;;7.70;1.30;;;;;;;16.95;42.50;99493.74;104637;1273;67744;-71
2022/05/12 12:23:32;;;;;;;9.90;1.70;;;;;;;16.83;42.19;99490.88;104597;1273;74135;-71
2022/05/12 12:26:36;;;;;;;12.10;1.90;;;;;;;16.69;42.60;99509.66;105001;1273;60348;-72
2022/05/12 12:29:46;;;;;;;6.90;1.30;;;;;;;16.49;42.49;99499.95;104861;1274;60703;-70
2022/05/12 12:32:35;;;;;;;7.70;1.50;;;;;;;16.44;43.33;99508.21;104941;1274;75627;-70
2022/05/12 12:35:28;;;;;;;5.40;1.00;;;;;;;16.53;43.07;99508.42;104861;1274;67340;-70
2022/05/12 12:38:48;;;;;;;7.40;1.80;;;;;;;16.61;43.27;99511.29;105104;1273;73704;-70
2022/05/12 12:41:43;;;;;;;7.70;1.50;;;;;;;16.84;42.57;99519.66;105284;1274;60505;-70
2022/05/12 12:44:30;;;;;;;7.50;1.30;;;;;;;16.93;42.03;99524.04;104776;1274;60495;-73
2022/05/12 12:47:39;;;;;;;16.30;1.70;;;;;;;16.91;42.65;99526.77;104917;1271;72992;-74
2022/05/12 12:50:52;;;;;;;9.40;1.40;;;;;;;16.90;41.48;99519.57;104826;1273;66841;-67
2022/05/12 12:56:47;;;;;;;10.50;1.60;;;;;;;16.74;42.47;99518.69;104957;1271;60449;-69
2022/05/12 12:59:40;;;;;;;8.80;2.00;;;;;;;16.77;42.76;99519.08;104859;1271;61663;-70
2022/05/12 13:02:41;;;;;;;10.00;1.30;;;;;;;16.72;43.11;99519.02;105043;1271;75505;-72
2022/05/12 13:05:32;;;;;;;10.80;1.60;;;;;;;16.75;42.64;99519.98;104979;1271;68177;-72
2022/05/12 13:08:30;;;;;;;12.70;1.70;;;;;;;16.84;42.47;99521.83;104783;1271;72932;-69
2022/05/12 13:11:19;;;;;;;8.90;1.60;;;;;;;16.95;41.70;99523.08;104827;1271;60571;-71
2022/05/12 13:14:15;;;;;;;11.40;1.50;;;;;;;16.89;41.65;99534.95;104836;1271;61818;-70
2022/05/12 13:17:06;;;;;;;11.60;1.30;;;;;;;16.69;41.65;99532.64;104881;1271;74511;-70
2022/05/12 13:19:59;;;;;;;16.40;2.00;;;;;;;16.61;42.54;99534.60;104818;1271;68553;-72
2022/05/12 13:22:56;;;;;;;13.90;1.70;;;;;;;16.66;42.81;99537.61;104835;1271;73645;-71
2022/05/12 13:25:44;;;;;;;11.50;1.60;;;;;;;16.71;42.31;99545.11;104860;1272;60378;-71
2022/05/12 13:28:36;;;;;;;9.90;1.40;;;;;;;16.79;42.27;99551.02;105019;1271;62304;-71
2022/05/12 13:31:42;;;;;;;10.60;1.50;;;;;;;16.76;42.06;99547.05;104998;1271;73778;-72
2022/05/12 13:34:33;;;;;;;10.10;1.90;;;;;;;16.70;42.44;99552.71;104876;1271;69610;-74
2022/05/12 13:37:28;;;;;;;9.20;1.40;;;;;;;16.74;42.54;99554.48;104958;1271;72149;-70
2022/05/12 13:40:45;;;;;;;9.80;1.30;;;;;;;16.69;43.35;99553.97;104591;1271;61030;-72